sensor_id;sensor_type;location;lat;lon;timestamp;P1;durP1;ratioP1;P2;durP2;ratioP2
67237;SDS011;54149;52.708;6.178;2024-02-15T00:01:39;49.25;;;17.38;;
67237;SDS011;54149;52.708;6.178;2024-02-15T00:04:05;55.17;;;16.35;;
67237;SDS011;54149;52.708;6.178;2024-02-15T00:06:31;56.22;;;17.40;;
67237;SDS011;54149;52.708;6.178;2024-02-15T00:08:57;53.28;;;16.38;;
67237;SDS011;54149;52.708;6.178;2024-02-15T00:11:24;53.42;;;17.70;;
67237;SDS011;54149;52.708;6.178;2024-02-15T00:13:50;46.80;;;16.13;;
67237;SDS011;54149;52.708;6.178;2024-02-15T00:16:16;56.88;;;18.25;;
67237;SDS011;54149;52.708;6.178;2024-02-15T00:18:42;57.40;;;17.13;;
67237;SDS011;54149;52.708;6.178;2024-02-15T00:21:08;55.42;;;18.27;;
67237;SDS011;54149;52.708;6.178;2024-02-15T00:23:34;62.03;;;18.63;;
67237;SDS011;54149;52.708;6.178;2024-02-15T00:26:00;63.25;;;19.00;;
67237;SDS011;54149;52.708;6.178;2024-02-15T00:28:26;71.60;;;19.58;;
67237;SDS011;54149;52.708;6.178;2024-02-15T00:30:52;73.30;;;20.85;;
67237;SDS011;54149;52.708;6.178;2024-02-15T00:33:19;66.72;;;20.73;;
67237;SDS011;54149;52.708;6.178;2024-02-15T00:35:45;69.88;;;22.30;;
67237;SDS011;54149;52.708;6.178;2024-02-15T00:38:11;79.70;;;22.83;;
67237;SDS011;54149;52.708;6.178;2024-02-15T00:40:37;83.93;;;23.65;;
67237;SDS011;54149;52.708;6.178;2024-02-15T00:43:05;77.65;;;22.77;;
67237;SDS011;54149;52.708;6.178;2024-02-15T00:45:31;82.78;;;21.85;;
67237;SDS011;54149;52.708;6.178;2024-02-15T00:47:57;78.45;;;23.52;;
67237;SDS011;54149;52.708;6.178;2024-02-15T00:50:23;84.57;;;24.17;;
67237;SDS011;54149;52.708;6.178;2024-02-15T00:52:49;82.80;;;23.10;;
67237;SDS011;54149;52.708;6.178;2024-02-15T00:55:15;85.57;;;23.63;;
67237;SDS011;54149;52.708;6.178;2024-02-15T00:57:41;82.72;;;23.10;;
67237;SDS011;54149;52.708;6.178;2024-02-15T01:00:07;81.28;;;22.77;;
67237;SDS011;54149;52.708;6.178;2024-02-15T01:02:35;71.93;;;22.17;;
67237;SDS011;54149;52.708;6.178;2024-02-15T01:05:01;85.05;;;23.70;;
67237;SDS011;54149;52.708;6.178;2024-02-15T01:07:27;84.13;;;21.05;;
67237;SDS011;54149;52.708;6.178;2024-02-15T01:09:53;78.03;;;21.48;;
67237;SDS011;54149;52.708;6.178;2024-02-15T01:12:20;68.20;;;19.73;;
67237;SDS011;54149;52.708;6.178;2024-02-15T01:14:46;68.03;;;19.10;;
67237;SDS011;54149;52.708;6.178;2024-02-15T01:17:12;67.55;;;18.55;;
67237;SDS011;54149;52.708;6.178;2024-02-15T01:19:40;61.67;;;19.00;;
67237;SDS011;54149;52.708;6.178;2024-02-15T01:22:06;71.55;;;19.15;;
67237;SDS011;54149;52.708;6.178;2024-02-15T01:24:33;53.85;;;16.35;;
67237;SDS011;54149;52.708;6.178;2024-02-15T01:26:59;59.03;;;17.70;;
67237;SDS011;54149;52.708;6.178;2024-02-15T01:29:25;49.20;;;15.30;;
67237;SDS011;54149;52.708;6.178;2024-02-15T01:31:51;52.03;;;16.38;;
67237;SDS011;54149;52.708;6.178;2024-02-15T01:34:17;42.58;;;15.23;;
67237;SDS011;54149;52.708;6.178;2024-02-15T01:36:43;38.67;;;12.95;;
67237;SDS011;54149;52.708;6.178;2024-02-15T01:39:09;37.83;;;13.35;;
67237;SDS011;54149;52.708;6.178;2024-02-15T01:41:35;39.65;;;12.63;;
67237;SDS011;54149;52.708;6.178;2024-02-15T01:44:02;48.17;;;12.27;;
67237;SDS011;54149;52.708;6.178;2024-02-15T01:46:28;52.00;;;12.60;;
67237;SDS011;54149;52.708;6.178;2024-02-15T01:48:54;45.53;;;13.25;;
67237;SDS011;54149;52.708;6.178;2024-02-15T01:51:21;47.88;;;13.18;;
67237;SDS011;54149;52.708;6.178;2024-02-15T01:53:49;51.30;;;13.90;;
67237;SDS011;54149;52.708;6.178;2024-02-15T01:56:15;40.47;;;13.48;;
67237;SDS011;54149;52.708;6.178;2024-02-15T01:58:42;51.22;;;15.23;;
67237;SDS011;54149;52.708;6.178;2024-02-15T02:01:09;56.63;;;17.38;;
67237;SDS011;54149;52.708;6.178;2024-02-15T02:03:35;56.78;;;18.05;;
67237;SDS011;54149;52.708;6.178;2024-02-15T02:06:02;53.50;;;17.63;;
67237;SDS011;54149;52.708;6.178;2024-02-15T02:08:28;52.40;;;18.48;;
67237;SDS011;54149;52.708;6.178;2024-02-15T02:10:54;64.70;;;17.50;;
67237;SDS011;54149;52.708;6.178;2024-02-15T02:13:20;57.67;;;18.10;;
67237;SDS011;54149;52.708;6.178;2024-02-15T02:15:46;57.03;;;17.30;;
67237;SDS011;54149;52.708;6.178;2024-02-15T02:18:12;59.00;;;15.32;;
67237;SDS011;54149;52.708;6.178;2024-02-15T02:20:39;58.25;;;15.85;;
67237;SDS011;54149;52.708;6.178;2024-02-15T02:23:25;46.83;;;15.32;;
67237;SDS011;54149;52.708;6.178;2024-02-15T02:25:51;49.25;;;16.38;;
67237;SDS011;54149;52.708;6.178;2024-02-15T02:28:19;64.63;;;18.55;;
67237;SDS011;54149;52.708;6.178;2024-02-15T02:30:47;50.72;;;17.55;;
67237;SDS011;54149;52.708;6.178;2024-02-15T02:33:13;77.93;;;19.98;;
67237;SDS011;54149;52.708;6.178;2024-02-15T02:35:47;73.82;;;21.20;;
67237;SDS011;54149;52.708;6.178;2024-02-15T02:38:14;67.47;;;21.13;;
67237;SDS011;54149;52.708;6.178;2024-02-15T02:40:40;68.25;;;21.88;;
67237;SDS011;54149;52.708;6.178;2024-02-15T02:43:07;74.40;;;22.80;;
67237;SDS011;54149;52.708;6.178;2024-02-15T02:45:33;69.07;;;21.95;;
67237;SDS011;54149;52.708;6.178;2024-02-15T02:47:59;67.47;;;20.48;;
67237;SDS011;54149;52.708;6.178;2024-02-15T02:50:26;71.78;;;20.40;;
67237;SDS011;54149;52.708;6.178;2024-02-15T02:52:52;73.25;;;22.52;;
67237;SDS011;54149;52.708;6.178;2024-02-15T02:55:19;61.50;;;20.63;;
67237;SDS011;54149;52.708;6.178;2024-02-15T02:57:45;73.65;;;21.63;;
67237;SDS011;54149;52.708;6.178;2024-02-15T03:00:12;68.65;;;21.33;;
67237;SDS011;54149;52.708;6.178;2024-02-15T03:02:40;73.07;;;21.27;;
67237;SDS011;54149;52.708;6.178;2024-02-15T03:05:06;69.93;;;20.95;;
67237;SDS011;54149;52.708;6.178;2024-02-15T03:07:33;69.28;;;20.35;;
67237;SDS011;54149;52.708;6.178;2024-02-15T03:10:00;60.15;;;19.88;;
67237;SDS011;54149;52.708;6.178;2024-02-15T03:12:27;67.72;;;20.10;;
67237;SDS011;54149;52.708;6.178;2024-02-15T03:14:54;66.85;;;20.02;;
67237;SDS011;54149;52.708;6.178;2024-02-15T03:17:21;63.95;;;20.90;;
67237;SDS011;54149;52.708;6.178;2024-02-15T03:19:47;62.10;;;20.88;;
67237;SDS011;54149;52.708;6.178;2024-02-15T03:22:14;69.90;;;21.23;;
67237;SDS011;54149;52.708;6.178;2024-02-15T03:24:40;60.45;;;19.98;;
67237;SDS011;54149;52.708;6.178;2024-02-15T03:27:07;64.78;;;20.52;;
67237;SDS011;54149;52.708;6.178;2024-02-15T03:29:37;60.67;;;21.95;;
67237;SDS011;54149;52.708;6.178;2024-02-15T03:32:03;63.22;;;23.52;;
67237;SDS011;54149;52.708;6.178;2024-02-15T03:34:31;64.75;;;21.88;;
67237;SDS011;54149;52.708;6.178;2024-02-15T03:36:57;70.47;;;22.42;;
67237;SDS011;54149;52.708;6.178;2024-02-15T03:39:24;62.88;;;23.42;;
67237;SDS011;54149;52.708;6.178;2024-02-15T03:41:50;64.75;;;23.00;;
67237;SDS011;54149;52.708;6.178;2024-02-15T03:44:17;65.88;;;23.25;;
67237;SDS011;54149;52.708;6.178;2024-02-15T03:46:44;73.20;;;24.95;;
67237;SDS011;54149;52.708;6.178;2024-02-15T03:49:16;72.75;;;25.40;;
67237;SDS011;54149;52.708;6.178;2024-02-15T03:51:42;71.78;;;25.85;;
67237;SDS011;54149;52.708;6.178;2024-02-15T03:54:10;76.53;;;25.85;;
67237;SDS011;54149;52.708;6.178;2024-02-15T03:56:36;80.28;;;26.95;;
67237;SDS011;54149;52.708;6.178;2024-02-15T03:59:02;79.03;;;26.55;;
67237;SDS011;54149;52.708;6.178;2024-02-15T04:01:30;76.90;;;25.55;;
67237;SDS011;54149;52.708;6.178;2024-02-15T04:03:59;83.35;;;28.52;;
67237;SDS011;54149;52.708;6.178;2024-02-15T04:06:27;77.03;;;28.85;;
67237;SDS011;54149;52.708;6.178;2024-02-15T04:08:56;77.90;;;27.50;;
67237;SDS011;54149;52.708;6.178;2024-02-15T04:11:22;81.00;;;28.13;;
67237;SDS011;54149;52.708;6.178;2024-02-15T04:13:48;77.13;;;28.38;;
67237;SDS011;54149;52.708;6.178;2024-02-15T04:16:14;82.03;;;29.55;;
67237;SDS011;54149;52.708;6.178;2024-02-15T04:18:41;81.97;;;28.85;;
67237;SDS011;54149;52.708;6.178;2024-02-15T04:21:10;85.50;;;30.02;;
67237;SDS011;54149;52.708;6.178;2024-02-15T04:23:36;79.97;;;30.65;;
67237;SDS011;54149;52.708;6.178;2024-02-15T04:26:02;87.88;;;31.10;;
67237;SDS011;54149;52.708;6.178;2024-02-15T04:28:29;84.07;;;30.63;;
67237;SDS011;54149;52.708;6.178;2024-02-15T04:30:55;84.03;;;30.90;;
67237;SDS011;54149;52.708;6.178;2024-02-15T04:33:22;81.47;;;29.83;;
67237;SDS011;54149;52.708;6.178;2024-02-15T04:35:48;83.20;;;30.67;;
67237;SDS011;54149;52.708;6.178;2024-02-15T04:38:16;79.70;;;31.45;;
67237;SDS011;54149;52.708;6.178;2024-02-15T04:40:44;79.70;;;30.55;;
67237;SDS011;54149;52.708;6.178;2024-02-15T04:43:10;84.00;;;31.42;;
67237;SDS011;54149;52.708;6.178;2024-02-15T04:45:36;87.78;;;33.35;;
67237;SDS011;54149;52.708;6.178;2024-02-15T04:48:02;86.00;;;33.22;;
67237;SDS011;54149;52.708;6.178;2024-02-15T04:50:29;88.20;;;32.50;;
67237;SDS011;54149;52.708;6.178;2024-02-15T04:52:55;84.38;;;30.85;;
67237;SDS011;54149;52.708;6.178;2024-02-15T04:55:21;85.30;;;31.20;;
67237;SDS011;54149;52.708;6.178;2024-02-15T04:57:48;88.03;;;32.22;;
67237;SDS011;54149;52.708;6.178;2024-02-15T05:00:14;97.55;;;32.72;;
67237;SDS011;54149;52.708;6.178;2024-02-15T05:02:41;89.93;;;32.67;;
67237;SDS011;54149;52.708;6.178;2024-02-15T05:05:09;80.10;;;31.40;;
67237;SDS011;54149;52.708;6.178;2024-02-15T05:07:37;83.15;;;32.40;;
67237;SDS011;54149;52.708;6.178;2024-02-15T05:10:05;77.18;;;30.52;;
67237;SDS011;54149;52.708;6.178;2024-02-15T05:12:32;81.82;;;30.23;;
67237;SDS011;54149;52.708;6.178;2024-02-15T05:14:59;86.07;;;30.55;;
67237;SDS011;54149;52.708;6.178;2024-02-15T05:17:25;82.65;;;31.73;;
67237;SDS011;54149;52.708;6.178;2024-02-15T05:19:53;78.20;;;30.05;;
67237;SDS011;54149;52.708;6.178;2024-02-15T05:22:24;78.68;;;28.48;;
67237;SDS011;54149;52.708;6.178;2024-02-15T05:24:54;79.95;;;30.60;;
67237;SDS011;54149;52.708;6.178;2024-02-15T05:27:20;77.65;;;29.50;;
67237;SDS011;54149;52.708;6.178;2024-02-15T05:29:46;76.68;;;30.55;;
67237;SDS011;54149;52.708;6.178;2024-02-15T05:32:12;78.93;;;31.23;;
67237;SDS011;54149;52.708;6.178;2024-02-15T05:34:39;84.15;;;28.88;;
67237;SDS011;54149;52.708;6.178;2024-02-15T05:37:05;77.03;;;29.92;;
67237;SDS011;54149;52.708;6.178;2024-02-15T05:39:32;73.18;;;29.58;;
67237;SDS011;54149;52.708;6.178;2024-02-15T05:41:59;75.80;;;29.02;;
67237;SDS011;54149;52.708;6.178;2024-02-15T05:44:26;84.43;;;29.75;;
67237;SDS011;54149;52.708;6.178;2024-02-15T05:46:53;75.47;;;28.25;;
67237;SDS011;54149;52.708;6.178;2024-02-15T05:49:19;70.13;;;27.63;;
67237;SDS011;54149;52.708;6.178;2024-02-15T05:51:48;74.47;;;28.42;;
67237;SDS011;54149;52.708;6.178;2024-02-15T05:54:14;73.38;;;28.05;;
67237;SDS011;54149;52.708;6.178;2024-02-15T05:56:41;73.80;;;27.63;;
67237;SDS011;54149;52.708;6.178;2024-02-15T05:59:08;69.75;;;26.95;;
67237;SDS011;54149;52.708;6.178;2024-02-15T06:01:39;71.68;;;27.63;;
67237;SDS011;54149;52.708;6.178;2024-02-15T06:04:06;72.80;;;25.15;;
67237;SDS011;54149;52.708;6.178;2024-02-15T06:06:36;70.97;;;26.27;;
67237;SDS011;54149;52.708;6.178;2024-02-15T06:09:03;66.07;;;26.48;;
67237;SDS011;54149;52.708;6.178;2024-02-15T06:11:30;64.80;;;24.95;;
67237;SDS011;54149;52.708;6.178;2024-02-15T06:13:56;59.95;;;23.70;;
67237;SDS011;54149;52.708;6.178;2024-02-15T06:16:22;62.33;;;24.38;;
67237;SDS011;54149;52.708;6.178;2024-02-15T06:18:48;74.43;;;25.05;;
67237;SDS011;54149;52.708;6.178;2024-02-15T06:21:14;65.53;;;23.40;;
67237;SDS011;54149;52.708;6.178;2024-02-15T06:23:41;56.28;;;23.80;;
67237;SDS011;54149;52.708;6.178;2024-02-15T06:26:07;59.67;;;23.02;;
67237;SDS011;54149;52.708;6.178;2024-02-15T06:28:33;64.50;;;21.55;;
67237;SDS011;54149;52.708;6.178;2024-02-15T06:31:18;64.03;;;22.02;;
67237;SDS011;54149;52.708;6.178;2024-02-15T06:34:03;52.50;;;21.25;;
67237;SDS011;54149;52.708;6.178;2024-02-15T06:36:48;60.95;;;21.75;;
67237;SDS011;54149;52.708;6.178;2024-02-15T06:39:34;56.10;;;21.65;;
67237;SDS011;54149;52.708;6.178;2024-02-15T06:42:06;53.20;;;21.08;;
67237;SDS011;54149;52.708;6.178;2024-02-15T06:44:33;58.95;;;20.85;;
67237;SDS011;54149;52.708;6.178;2024-02-15T06:46:59;63.17;;;21.50;;
67237;SDS011;54149;52.708;6.178;2024-02-15T06:49:25;53.17;;;20.48;;
67237;SDS011;54149;52.708;6.178;2024-02-15T06:51:51;56.33;;;21.77;;
67237;SDS011;54149;52.708;6.178;2024-02-15T06:54:17;59.08;;;21.58;;
67237;SDS011;54149;52.708;6.178;2024-02-15T06:56:44;55.58;;;21.42;;
67237;SDS011;54149;52.708;6.178;2024-02-15T06:59:13;50.15;;;20.88;;
67237;SDS011;54149;52.708;6.178;2024-02-15T07:01:42;59.17;;;22.58;;
67237;SDS011;54149;52.708;6.178;2024-02-15T07:04:09;53.10;;;21.60;;
67237;SDS011;54149;52.708;6.178;2024-02-15T07:06:36;51.75;;;20.02;;
67237;SDS011;54149;52.708;6.178;2024-02-15T07:09:03;53.50;;;22.08;;
67237;SDS011;54149;52.708;6.178;2024-02-15T07:11:29;56.63;;;22.25;;
67237;SDS011;54149;52.708;6.178;2024-02-15T07:13:56;57.65;;;21.65;;
67237;SDS011;54149;52.708;6.178;2024-02-15T07:16:22;58.72;;;22.75;;
67237;SDS011;54149;52.708;6.178;2024-02-15T07:18:48;59.47;;;20.80;;
67237;SDS011;54149;52.708;6.178;2024-02-15T07:21:15;59.50;;;22.80;;
67237;SDS011;54149;52.708;6.178;2024-02-15T07:23:42;53.42;;;20.92;;
67237;SDS011;54149;52.708;6.178;2024-02-15T07:26:08;59.55;;;20.48;;
67237;SDS011;54149;52.708;6.178;2024-02-15T07:28:37;63.10;;;20.55;;
67237;SDS011;54149;52.708;6.178;2024-02-15T07:31:03;62.17;;;21.23;;
67237;SDS011;54149;52.708;6.178;2024-02-15T07:33:29;52.33;;;19.55;;
67237;SDS011;54149;52.708;6.178;2024-02-15T07:35:55;53.28;;;19.98;;
67237;SDS011;54149;52.708;6.178;2024-02-15T07:38:22;57.80;;;21.63;;
67237;SDS011;54149;52.708;6.178;2024-02-15T07:40:48;57.65;;;21.48;;
67237;SDS011;54149;52.708;6.178;2024-02-15T07:43:15;58.15;;;21.13;;
67237;SDS011;54149;52.708;6.178;2024-02-15T07:45:41;49.63;;;19.20;;
67237;SDS011;54149;52.708;6.178;2024-02-15T07:48:08;45.95;;;18.92;;
67237;SDS011;54149;52.708;6.178;2024-02-15T07:50:34;53.67;;;20.15;;
67237;SDS011;54149;52.708;6.178;2024-02-15T07:53:03;52.85;;;19.67;;
67237;SDS011;54149;52.708;6.178;2024-02-15T07:55:33;53.00;;;19.17;;
67237;SDS011;54149;52.708;6.178;2024-02-15T07:57:59;55.33;;;19.17;;
67237;SDS011;54149;52.708;6.178;2024-02-15T08:00:26;46.97;;;19.67;;
67237;SDS011;54149;52.708;6.178;2024-02-15T08:02:53;40.80;;;18.17;;
67237;SDS011;54149;52.708;6.178;2024-02-15T08:05:19;47.65;;;18.63;;
67237;SDS011;54149;52.708;6.178;2024-02-15T08:07:46;41.42;;;18.48;;
67237;SDS011;54149;52.708;6.178;2024-02-15T08:10:15;41.47;;;19.05;;
67237;SDS011;54149;52.708;6.178;2024-02-15T08:12:42;42.47;;;19.15;;
67237;SDS011;54149;52.708;6.178;2024-02-15T08:15:09;44.30;;;19.92;;
67237;SDS011;54149;52.708;6.178;2024-02-15T08:17:39;46.78;;;18.40;;
67237;SDS011;54149;52.708;6.178;2024-02-15T08:20:06;48.63;;;19.70;;
67237;SDS011;54149;52.708;6.178;2024-02-15T08:22:33;48.03;;;18.15;;
67237;SDS011;54149;52.708;6.178;2024-02-15T08:24:59;45.30;;;19.02;;
67237;SDS011;54149;52.708;6.178;2024-02-15T08:27:26;47.35;;;19.13;;
67237;SDS011;54149;52.708;6.178;2024-02-15T08:29:52;51.13;;;18.98;;
67237;SDS011;54149;52.708;6.178;2024-02-15T08:32:19;46.97;;;18.10;;
67237;SDS011;54149;52.708;6.178;2024-02-15T08:34:45;40.30;;;18.00;;
67237;SDS011;54149;52.708;6.178;2024-02-15T08:37:13;42.65;;;17.92;;
67237;SDS011;54149;52.708;6.178;2024-02-15T08:39:39;45.40;;;18.77;;
67237;SDS011;54149;52.708;6.178;2024-02-15T08:42:05;43.30;;;19.30;;
67237;SDS011;54149;52.708;6.178;2024-02-15T08:44:31;38.22;;;17.95;;
67237;SDS011;54149;52.708;6.178;2024-02-15T08:46:58;41.25;;;18.60;;
67237;SDS011;54149;52.708;6.178;2024-02-15T08:49:24;35.78;;;16.92;;
67237;SDS011;54149;52.708;6.178;2024-02-15T08:51:52;37.13;;;17.50;;
67237;SDS011;54149;52.708;6.178;2024-02-15T08:54:18;41.13;;;17.35;;
67237;SDS011;54149;52.708;6.178;2024-02-15T08:56:46;38.58;;;16.75;;
67237;SDS011;54149;52.708;6.178;2024-02-15T08:59:12;38.60;;;17.08;;
67237;SDS011;54149;52.708;6.178;2024-02-15T09:01:40;35.40;;;16.52;;
67237;SDS011;54149;52.708;6.178;2024-02-15T09:04:08;38.63;;;16.83;;
67237;SDS011;54149;52.708;6.178;2024-02-15T09:06:34;45.58;;;18.70;;
67237;SDS011;54149;52.708;6.178;2024-02-15T09:09:01;49.78;;;20.98;;
67237;SDS011;54149;52.708;6.178;2024-02-15T09:11:28;35.72;;;17.75;;
67237;SDS011;54149;52.708;6.178;2024-02-15T09:13:54;37.22;;;16.90;;
67237;SDS011;54149;52.708;6.178;2024-02-15T09:16:20;32.38;;;15.98;;
67237;SDS011;54149;52.708;6.178;2024-02-15T09:18:47;37.88;;;18.25;;
67237;SDS011;54149;52.708;6.178;2024-02-15T09:21:13;37.15;;;15.60;;
67237;SDS011;54149;52.708;6.178;2024-02-15T09:23:39;40.35;;;18.88;;
67237;SDS011;54149;52.708;6.178;2024-02-15T09:26:05;38.13;;;15.43;;
67237;SDS011;54149;52.708;6.178;2024-02-15T09:28:35;35.03;;;14.30;;
67237;SDS011;54149;52.708;6.178;2024-02-15T09:31:01;29.42;;;13.38;;
67237;SDS011;54149;52.708;6.178;2024-02-15T09:33:27;27.95;;;13.43;;
67237;SDS011;54149;52.708;6.178;2024-02-15T09:35:53;27.77;;;12.95;;
67237;SDS011;54149;52.708;6.178;2024-02-15T09:38:20;25.45;;;11.75;;
67237;SDS011;54149;52.708;6.178;2024-02-15T09:40:49;27.80;;;12.02;;
67237;SDS011;54149;52.708;6.178;2024-02-15T09:43:16;28.13;;;13.32;;
67237;SDS011;54149;52.708;6.178;2024-02-15T09:45:42;23.88;;;12.13;;
67237;SDS011;54149;52.708;6.178;2024-02-15T09:48:10;26.33;;;12.25;;
67237;SDS011;54149;52.708;6.178;2024-02-15T09:50:39;23.88;;;10.18;;
67237;SDS011;54149;52.708;6.178;2024-02-15T09:53:09;20.98;;;10.38;;
67237;SDS011;54149;52.708;6.178;2024-02-15T09:55:35;17.35;;;9.07;;
67237;SDS011;54149;52.708;6.178;2024-02-15T09:58:01;17.20;;;8.98;;
67237;SDS011;54149;52.708;6.178;2024-02-15T10:00:30;17.17;;;8.40;;
67237;SDS011;54149;52.708;6.178;2024-02-15T10:02:57;16.45;;;9.27;;
67237;SDS011;54149;52.708;6.178;2024-02-15T10:05:24;13.93;;;7.95;;
67237;SDS011;54149;52.708;6.178;2024-02-15T10:07:50;15.73;;;8.35;;
67237;SDS011;54149;52.708;6.178;2024-02-15T10:12:43;15.43;;;8.13;;
67237;SDS011;54149;52.708;6.178;2024-02-15T10:15:22;13.10;;;7.35;;
67237;SDS011;54149;52.708;6.178;2024-02-15T10:17:53;15.60;;;8.18;;
67237;SDS011;54149;52.708;6.178;2024-02-15T10:20:20;13.73;;;7.50;;
67237;SDS011;54149;52.708;6.178;2024-02-15T10:22:47;10.40;;;6.50;;
67237;SDS011;54149;52.708;6.178;2024-02-15T10:25:13;10.15;;;6.30;;
67237;SDS011;54149;52.708;6.178;2024-02-15T10:27:40;12.00;;;6.72;;
67237;SDS011;54149;52.708;6.178;2024-02-15T10:30:16;10.32;;;5.82;;
67237;SDS011;54149;52.708;6.178;2024-02-15T10:32:43;12.57;;;6.90;;
67237;SDS011;54149;52.708;6.178;2024-02-15T10:35:10;12.23;;;6.70;;
67237;SDS011;54149;52.708;6.178;2024-02-15T10:37:41;12.75;;;6.35;;
67237;SDS011;54149;52.708;6.178;2024-02-15T10:40:07;12.65;;;6.25;;
67237;SDS011;54149;52.708;6.178;2024-02-15T10:42:34;14.18;;;7.25;;
67237;SDS011;54149;52.708;6.178;2024-02-15T10:45:04;14.05;;;7.60;;
67237;SDS011;54149;52.708;6.178;2024-02-15T10:47:31;13.95;;;6.95;;
67237;SDS011;54149;52.708;6.178;2024-02-15T10:49:57;18.65;;;8.80;;
67237;SDS011;54149;52.708;6.178;2024-02-15T10:52:24;14.32;;;8.07;;
67237;SDS011;54149;52.708;6.178;2024-02-15T10:57:20;11.88;;;6.82;;
67237;SDS011;54149;52.708;6.178;2024-02-15T10:59:57;11.90;;;6.53;;
67237;SDS011;54149;52.708;6.178;2024-02-15T11:02:25;13.00;;;9.63;;
67237;SDS011;54149;52.708;6.178;2024-02-15T11:04:55;11.32;;;5.72;;
67237;SDS011;54149;52.708;6.178;2024-02-15T11:07:25;11.57;;;7.65;;
67237;SDS011;54149;52.708;6.178;2024-02-15T11:09:52;11.27;;;7.15;;
67237;SDS011;54149;52.708;6.178;2024-02-15T11:12:21;10.55;;;6.63;;
67237;SDS011;54149;52.708;6.178;2024-02-15T11:14:48;12.98;;;7.10;;
67237;SDS011;54149;52.708;6.178;2024-02-15T11:23:04;12.63;;;7.32;;
67237;SDS011;54149;52.708;6.178;2024-02-15T11:25:37;17.70;;;8.70;;
67237;SDS011;54149;52.708;6.178;2024-02-15T11:30:52;15.07;;;8.52;;
67237;SDS011;54149;52.708;6.178;2024-02-15T11:33:28;21.08;;;8.88;;
67237;SDS011;54149;52.708;6.178;2024-02-15T11:36:04;18.48;;;8.82;;
67237;SDS011;54149;52.708;6.178;2024-02-15T11:38:31;20.70;;;9.93;;
67237;SDS011;54149;52.708;6.178;2024-02-15T11:46:21;24.67;;;10.95;;
67237;SDS011;54149;52.708;6.178;2024-02-15T11:48:50;25.17;;;11.55;;
67237;SDS011;54149;52.708;6.178;2024-02-15T11:51:29;27.23;;;12.25;;
67237;SDS011;54149;52.708;6.178;2024-02-15T11:54:01;21.63;;;11.68;;
67237;SDS011;54149;52.708;6.178;2024-02-15T11:56:31;25.30;;;12.02;;
67237;SDS011;54149;52.708;6.178;2024-02-15T11:59:04;25.65;;;12.02;;
67237;SDS011;54149;52.708;6.178;2024-02-15T12:01:37;25.23;;;13.13;;
67237;SDS011;54149;52.708;6.178;2024-02-15T12:04:22;29.23;;;13.77;;
67237;SDS011;54149;52.708;6.178;2024-02-15T12:07:07;25.95;;;12.35;;
67237;SDS011;54149;52.708;6.178;2024-02-15T12:09:57;25.05;;;11.57;;
67237;SDS011;54149;52.708;6.178;2024-02-15T12:12:50;24.40;;;11.50;;
67237;SDS011;54149;52.708;6.178;2024-02-15T12:15:36;24.00;;;12.60;;
67237;SDS011;54149;52.708;6.178;2024-02-15T12:18:20;30.08;;;12.43;;
67237;SDS011;54149;52.708;6.178;2024-02-15T12:21:07;30.05;;;12.65;;
67237;SDS011;54149;52.708;6.178;2024-02-15T12:23:38;24.95;;;12.70;;
67237;SDS011;54149;52.708;6.178;2024-02-15T12:26:06;23.00;;;11.68;;
67237;SDS011;54149;52.708;6.178;2024-02-15T12:28:32;23.95;;;11.75;;
67237;SDS011;54149;52.708;6.178;2024-02-15T12:31:02;25.95;;;12.55;;
67237;SDS011;54149;52.708;6.178;2024-02-15T12:33:31;26.13;;;12.10;;
67237;SDS011;54149;52.708;6.178;2024-02-15T12:36:04;27.52;;;11.68;;
67237;SDS011;54149;52.708;6.178;2024-02-15T12:38:31;23.30;;;12.02;;
67237;SDS011;54149;52.708;6.178;2024-02-15T12:40:59;30.13;;;13.13;;
67237;SDS011;54149;52.708;6.178;2024-02-15T12:43:27;26.17;;;12.73;;
67237;SDS011;54149;52.708;6.178;2024-02-15T12:45:53;22.13;;;12.57;;
67237;SDS011;54149;52.708;6.178;2024-02-15T12:48:22;23.30;;;13.10;;
67237;SDS011;54149;52.708;6.178;2024-02-15T12:50:48;26.15;;;13.27;;
67237;SDS011;54149;52.708;6.178;2024-02-15T12:53:22;33.03;;;13.70;;
67237;SDS011;54149;52.708;6.178;2024-02-15T12:55:54;31.55;;;13.13;;
67237;SDS011;54149;52.708;6.178;2024-02-15T12:58:21;33.67;;;14.15;;
67237;SDS011;54149;52.708;6.178;2024-02-15T13:00:49;34.10;;;14.63;;
67237;SDS011;54149;52.708;6.178;2024-02-15T13:03:15;32.20;;;14.40;;
67237;SDS011;54149;52.708;6.178;2024-02-15T13:05:42;31.13;;;13.45;;
67237;SDS011;54149;52.708;6.178;2024-02-15T13:08:09;28.75;;;13.82;;
67237;SDS011;54149;52.708;6.178;2024-02-15T13:10:38;30.73;;;13.43;;
67237;SDS011;54149;52.708;6.178;2024-02-15T13:13:04;30.88;;;13.82;;
67237;SDS011;54149;52.708;6.178;2024-02-15T13:15:36;30.52;;;13.35;;
67237;SDS011;54149;52.708;6.178;2024-02-15T13:18:03;30.30;;;13.25;;
67237;SDS011;54149;52.708;6.178;2024-02-15T13:20:29;34.95;;;14.25;;
67237;SDS011;54149;52.708;6.178;2024-02-15T13:23:01;32.80;;;14.13;;
67237;SDS011;54149;52.708;6.178;2024-02-15T13:25:32;30.13;;;13.38;;
67237;SDS011;54149;52.708;6.178;2024-02-15T13:27:59;29.38;;;12.52;;
67237;SDS011;54149;52.708;6.178;2024-02-15T13:30:25;33.38;;;13.93;;
67237;SDS011;54149;52.708;6.178;2024-02-15T13:32:53;34.70;;;14.57;;
67237;SDS011;54149;52.708;6.178;2024-02-15T13:35:19;32.78;;;14.10;;
67237;SDS011;54149;52.708;6.178;2024-02-15T13:40:15;33.53;;;14.38;;
67237;SDS011;54149;52.708;6.178;2024-02-15T13:42:42;29.65;;;14.07;;
67237;SDS011;54149;52.708;6.178;2024-02-15T13:45:14;28.20;;;14.40;;
67237;SDS011;54149;52.708;6.178;2024-02-15T13:47:41;31.65;;;14.73;;
67237;SDS011;54149;52.708;6.178;2024-02-15T13:50:11;34.42;;;14.50;;
67237;SDS011;54149;52.708;6.178;2024-02-15T13:52:39;32.42;;;13.52;;
67237;SDS011;54149;52.708;6.178;2024-02-15T13:55:08;31.58;;;14.45;;
67237;SDS011;54149;52.708;6.178;2024-02-15T13:57:36;32.45;;;15.65;;
67237;SDS011;54149;52.708;6.178;2024-02-15T14:00:02;35.47;;;15.07;;
67237;SDS011;54149;52.708;6.178;2024-02-15T14:02:31;36.53;;;15.57;;
67237;SDS011;54149;52.708;6.178;2024-02-15T14:04:57;44.20;;;16.15;;
67237;SDS011;54149;52.708;6.178;2024-02-15T14:07:23;33.75;;;14.57;;
67237;SDS011;54149;52.708;6.178;2024-02-15T14:09:49;35.42;;;15.82;;
67237;SDS011;54149;52.708;6.178;2024-02-15T14:12:15;38.92;;;14.75;;
67237;SDS011;54149;52.708;6.178;2024-02-15T14:14:41;39.47;;;16.05;;
67237;SDS011;54149;52.708;6.178;2024-02-15T14:17:08;34.72;;;15.23;;
67237;SDS011;54149;52.708;6.178;2024-02-15T14:19:34;33.22;;;15.75;;
67237;SDS011;54149;52.708;6.178;2024-02-15T14:22:01;36.53;;;15.82;;
67237;SDS011;54149;52.708;6.178;2024-02-15T14:24:27;43.42;;;16.00;;
67237;SDS011;54149;52.708;6.178;2024-02-15T14:26:53;34.97;;;16.25;;
67237;SDS011;54149;52.708;6.178;2024-02-15T14:29:19;37.55;;;16.17;;
67237;SDS011;54149;52.708;6.178;2024-02-15T14:31:52;36.20;;;16.13;;
67237;SDS011;54149;52.708;6.178;2024-02-15T14:34:37;35.10;;;15.32;;
67237;SDS011;54149;52.708;6.178;2024-02-15T14:37:03;34.65;;;14.98;;
67237;SDS011;54149;52.708;6.178;2024-02-15T14:39:31;40.22;;;16.13;;
67237;SDS011;54149;52.708;6.178;2024-02-15T14:41:59;35.85;;;14.20;;
67237;SDS011;54149;52.708;6.178;2024-02-15T14:44:25;32.45;;;13.75;;
67237;SDS011;54149;52.708;6.178;2024-02-15T14:46:51;28.85;;;13.15;;
67237;SDS011;54149;52.708;6.178;2024-02-15T14:49:18;31.80;;;13.55;;